Time;durP1;ratioP1;P1;durP2;ratioP2;P2;SDS_P1;SDS_P2;PMS_P1;PMS_P2;Temp;Humidity;BMP_temperature;BMP_pressure;BME280_temperature;BME280_humidity;BME280_pressure;Samples;Min_cycle;Max_cycle;Signal;HPM_P1;HPM_P2
2022/07/28 00:02:35;;;;;;;0.50;0.40;;;;;;;;;;4983017;28;20219;-62
2022/07/28 00:05:24;;;;;;;0.20;0.20;;;;;;;;;;4977778;28;20750;-62
2022/07/28 00:08:11;;;;;;;0.40;0.40;;;;;;;;;;4979104;28;20672;-62
2022/07/28 00:10:58;;;;;;;0.20;0.20;;;;;;;;;;4986438;28;20711;-62
2022/07/28 00:13:45;;;;;;;0.50;0.30;;;;;;;;;;4981815;28;20326;-63
2022/07/28 00:16:32;;;;;;;0.20;0.20;;;;;;;;;;4974538;28;20219;-63
2022/07/28 00:19:20;;;;;;;0.30;0.30;;;;;;;;;;4980766;28;20201;-62
2022/07/28 00:22:08;;;;;;;0.30;0.30;;;;;;;;;;4980719;28;20638;-63
2022/07/28 00:24:55;;;;;;;0.30;0.30;;;;;;;;;;4981694;28;20280;-62
2022/07/28 00:27:42;;;;;;;0.30;0.30;;;;;;;;;;4983939;28;20560;-63
2022/07/28 00:30:29;;;;;;;0.30;0.30;;;;;;;;;;4985372;28;20222;-62
2022/07/28 00:33:17;;;;;;;0.30;0.30;;;;;;;;;;4979552;28;20359;-62
2022/07/28 00:36:05;;;;;;;0.40;0.30;;;;;;;;;;4981278;28;20212;-63
2022/07/28 00:38:54;;;;;;;0.20;0.20;;;;;;;;;;4982145;28;20239;-62
2022/07/28 00:41:41;;;;;;;0.20;0.20;;;;;;;;;;4983973;28;20238;-63
2022/07/28 00:44:28;;;;;;;0.20;0.20;;;;;;;;;;4980310;28;20207;-62
2022/07/28 00:47:15;;;;;;;0.30;0.30;;;;;;;;;;4981511;28;20215;-62
2022/07/28 00:50:04;;;;;;;0.50;0.30;;;;;;;;;;4984828;28;20597;-62
2022/07/28 00:52:51;;;;;;;0.30;0.30;;;;;;;;;;4986334;28;20259;-63
2022/07/28 00:55:40;;;;;;;0.50;0.50;;;;;;;;;;4987849;28;20250;-63
2022/07/28 00:58:27;;;;;;;0.30;0.30;;;;;;;;;;4986681;28;20206;-63
2022/07/28 01:01:18;;;;;;;0.33;0.30;;;;;;;;;;4983902;28;20219;-62
2022/07/28 01:04:06;;;;;;;1.03;0.20;;;;;;;;;;4986075;28;20207;-63
2022/07/28 01:07:05;;;;;;;0.30;0.30;;;;;;;;;;4987269;28;20236;-63
2022/07/28 01:09:59;;;;;;;0.27;0.27;;;;;;;;;;4988947;28;20211;-62
2022/07/28 01:12:55;;;;;;;0.20;0.20;;;;;;;;;;4978248;28;20222;-62
2022/07/28 01:15:48;;;;;;;0.30;0.30;;;;;;;;;;4981206;28;20208;-63
2022/07/28 01:18:42;;;;;;;0.30;0.30;;;;;;;;;;4983178;28;20670;-62
2022/07/28 01:21:36;;;;;;;0.20;0.20;;;;;;;;;;4986877;28;20232;-62
2022/07/28 01:24:29;;;;;;;0.70;0.40;;;;;;;;;;4982279;28;20240;-62
2022/07/28 01:27:29;;;;;;;0.40;0.20;;;;;;;;;;4981918;28;20203;-62
2022/07/28 01:30:32;;;;;;;0.40;0.30;;;;;;;;;;4984823;28;20242;-63
2022/07/28 01:33:25;;;;;;;0.20;0.20;;;;;;;;;;4983057;28;20214;-63
2022/07/28 01:36:16;;;;;;;0.40;0.40;;;;;;;;;;4985421;28;20207;-62
2022/07/28 01:39:03;;;;;;;0.40;0.30;;;;;;;;;;4981324;28;20294;-62
2022/07/28 01:41:51;;;;;;;0.20;0.20;;;;;;;;;;4986710;28;20238;-62
2022/07/28 01:44:43;;;;;;;0.30;0.30;;;;;;;;;;4985150;28;20200;-63
2022/07/28 01:47:32;;;;;;;0.20;0.20;;;;;;;;;;4983415;28;20211;-62
2022/07/28 01:50:22;;;;;;;0.97;0.40;;;;;;;;;;4980454;28;20215;-63
2022/07/28 01:53:11;;;;;;;0.20;0.20;;;;;;;;;;4983300;28;20211;-62
2022/07/28 01:56:01;;;;;;;1.70;0.53;;;;;;;;;;4983209;28;20623;-62
2022/07/28 01:58:51;;;;;;;0.50;0.50;;;;;;;;;;4982881;28;20218;-63
2022/07/28 02:01:43;;;;;;;0.40;0.40;;;;;;;;;;4985009;28;20239;-62
2022/07/28 02:04:33;;;;;;;0.40;0.40;;;;;;;;;;4985241;28;20289;-62
2022/07/28 02:07:22;;;;;;;0.40;0.40;;;;;;;;;;4986364;28;20299;-62
2022/07/28 02:10:11;;;;;;;0.20;0.20;;;;;;;;;;4983021;28;20249;-63
2022/07/28 02:13:00;;;;;;;0.20;0.20;;;;;;;;;;4980562;28;20211;-62
2022/07/28 02:15:47;;;;;;;0.67;0.20;;;;;;;;;;4986867;28;20234;-62
2022/07/28 02:18:37;;;;;;;0.30;0.30;;;;;;;;;;4981658;28;20202;-63
2022/07/28 02:21:27;;;;;;;0.43;0.30;;;;;;;;;;4979720;28;20219;-63
2022/07/28 02:24:16;;;;;;;0.57;0.50;;;;;;;;;;4985632;28;20605;-62
2022/07/28 02:27:08;;;;;;;0.30;0.30;;;;;;;;;;4988580;28;20215;-62
2022/07/28 02:30:02;;;;;;;0.30;0.30;;;;;;;;;;4982651;28;20208;-62
2022/07/28 02:32:52;;;;;;;0.20;0.20;;;;;;;;;;4986824;28;20230;-62
2022/07/28 02:35:46;;;;;;;0.30;0.30;;;;;;;;;;4984233;28;20230;-62
2022/07/28 02:38:39;;;;;;;0.20;0.20;;;;;;;;;;4980850;28;20610;-61
2022/07/28 02:41:28;;;;;;;0.30;0.30;;;;;;;;;;4981158;28;20200;-62
2022/07/28 02:44:20;;;;;;;0.27;0.20;;;;;;;;;;4980405;28;20196;-62
2022/07/28 02:47:10;;;;;;;0.27;0.27;;;;;;;;;;4979617;28;20210;-62
2022/07/28 02:50:01;;;;;;;0.30;0.30;;;;;;;;;;4983423;28;20214;-62
2022/07/28 02:52:51;;;;;;;0.30;0.30;;;;;;;;;;4983205;28;20220;-63
2022/07/28 02:55:40;;;;;;;0.20;0.20;;;;;;;;;;4982531;28;20222;-62
2022/07/28 02:58:28;;;;;;;0.30;0.30;;;;;;;;;;4984223;28;20210;-62
2022/07/28 03:01:18;;;;;;;0.47;0.40;;;;;;;;;;4985941;28;20198;-62
2022/07/28 03:04:05;;;;;;;0.37;0.37;;;;;;;;;;4988288;28;20249;-63
2022/07/28 03:06:52;;;;;;;0.30;0.30;;;;;;;;;;4989391;28;20320;-62
2022/07/28 03:09:40;;;;;;;0.30;0.30;;;;;;;;;;4982125;28;20214;-62
2022/07/28 03:12:29;;;;;;;0.20;0.20;;;;;;;;;;4981491;28;20203;-62
2022/07/28 03:15:16;;;;;;;0.40;0.40;;;;;;;;;;4986532;28;20299;-62
2022/07/28 03:18:04;;;;;;;0.30;0.30;;;;;;;;;;4982378;28;20222;-62
2022/07/28 03:20:51;;;;;;;0.57;0.40;;;;;;;;;;4981532;28;20561;-62
2022/07/28 03:23:42;;;;;;;0.30;0.30;;;;;;;;;;4985863;28;20253;-62
2022/07/28 03:26:35;;;;;;;0.53;0.53;;;;;;;;;;4986055;28;20212;-62
2022/07/28 03:29:25;;;;;;;0.53;0.47;;;;;;;;;;4980028;28;20245;-62
2022/07/28 03:32:13;;;;;;;1.33;0.50;;;;;;;;;;4981857;28;20200;-62
2022/07/28 03:35:00;;;;;;;0.30;0.30;;;;;;;;;;4981831;28;20254;-62
2022/07/28 03:37:53;;;;;;;0.33;0.33;;;;;;;;;;4986645;28;20322;-63
2022/07/28 03:40:42;;;;;;;0.30;0.30;;;;;;;;;;4983032;28;20212;-63
2022/07/28 03:43:29;;;;;;;0.37;0.27;;;;;;;;;;4981455;28;20240;-63
2022/07/28 03:46:20;;;;;;;0.30;0.30;;;;;;;;;;4980177;28;20224;-63
2022/07/28 03:49:07;;;;;;;0.23;0.23;;;;;;;;;;4981367;28;20230;-62
2022/07/28 03:51:54;;;;;;;0.20;0.20;;;;;;;;;;4980304;28;20208;-62
2022/07/28 03:54:41;;;;;;;0.40;0.40;;;;;;;;;;4979292;28;20614;-63
2022/07/28 03:57:28;;;;;;;0.33;0.33;;;;;;;;;;4984454;28;20207;-63
2022/07/28 04:00:17;;;;;;;0.30;0.30;;;;;;;;;;4978261;28;20216;-63
2022/07/28 04:03:05;;;;;;;0.30;0.30;;;;;;;;;;4986042;28;20212;-62
2022/07/28 04:05:55;;;;;;;0.30;0.30;;;;;;;;;;4978288;28;20228;-62
2022/07/28 04:08:42;;;;;;;0.30;0.30;;;;;;;;;;4981616;28;20225;-63
2022/07/28 04:11:29;;;;;;;0.30;0.30;;;;;;;;;;4981738;28;20217;-63
2022/07/28 04:14:17;;;;;;;0.30;0.30;;;;;;;;;;4981215;28;20595;-62
2022/07/28 04:17:03;;;;;;;0.43;0.30;;;;;;;;;;4985192;28;20213;-63
2022/07/28 04:19:52;;;;;;;0.30;0.30;;;;;;;;;;4980408;28;20247;-62
2022/07/28 04:22:39;;;;;;;0.40;0.40;;;;;;;;;;4985255;28;20342;-63
2022/07/28 04:25:27;;;;;;;0.30;0.30;;;;;;;;;;4980253;28;20213;-62
2022/07/28 04:28:14;;;;;;;0.20;0.20;;;;;;;;;;4983651;28;20231;-63
2022/07/28 04:31:01;;;;;;;0.27;0.27;;;;;;;;;;4987986;28;20592;-63
2022/07/28 04:33:49;;;;;;;2.00;0.37;;;;;;;;;;4986248;28;20212;-63
2022/07/28 04:36:42;;;;;;;0.40;0.40;;;;;;;;;;4981884;28;20220;-63
2022/07/28 04:39:29;;;;;;;0.20;0.20;;;;;;;;;;4987887;28;20217;-64
2022/07/28 04:42:17;;;;;;;0.30;0.30;;;;;;;;;;4983274;28;20206;-63
2022/07/28 04:45:05;;;;;;;0.20;0.20;;;;;;;;;;4981859;28;20252;-63
2022/07/28 04:47:52;;;;;;;0.30;0.30;;;;;;;;;;4987985;28;20717;-62
2022/07/28 04:50:40;;;;;;;0.23;0.23;;;;;;;;;;4989492;28;20221;-63
2022/07/28 04:53:29;;;;;;;0.30;0.30;;;;;;;;;;4985660;28;20292;-62
2022/07/28 04:56:16;;;;;;;0.30;0.30;;;;;;;;;;4985869;28;20312;-63
2022/07/28 04:59:03;;;;;;;0.27;0.27;;;;;;;;;;4993087;28;20221;-63
2022/07/28 05:01:50;;;;;;;0.20;0.20;;;;;;;;;;4982548;28;20293;-63
2022/07/28 05:04:37;;;;;;;0.30;0.30;;;;;;;;;;4981150;28;20209;-62
2022/07/28 05:07:24;;;;;;;0.30;0.30;;;;;;;;;;4986946;28;20206;-62
2022/07/28 05:10:13;;;;;;;1.13;0.20;;;;;;;;;;4988570;28;20671;-62
2022/07/28 05:13:04;;;;;;;0.20;0.20;;;;;;;;;;4984425;28;20215;-62
2022/07/28 05:15:51;;;;;;;1.60;0.40;;;;;;;;;;4985206;28;20329;-62
2022/07/28 05:18:38;;;;;;;0.30;0.30;;;;;;;;;;4987144;28;20217;-62
2022/07/28 05:21:25;;;;;;;0.30;0.30;;;;;;;;;;4988578;28;20659;-62
2022/07/28 05:24:12;;;;;;;0.33;0.20;;;;;;;;;;4984104;28;20238;-62
2022/07/28 05:27:01;;;;;;;0.30;0.30;;;;;;;;;;4984113;28;20260;-62
2022/07/28 05:29:48;;;;;;;0.20;0.20;;;;;;;;;;4983478;28;20212;-62
2022/07/28 05:32:35;;;;;;;0.60;0.40;;;;;;;;;;4982414;28;20211;-62
2022/07/28 05:35:22;;;;;;;0.53;0.33;;;;;;;;;;4986494;28;20735;-62
2022/07/28 05:38:09;;;;;;;0.30;0.30;;;;;;;;;;4989818;28;20222;-62
2022/07/28 05:40:56;;;;;;;0.20;0.20;;;;;;;;;;4984488;28;20221;-62
2022/07/28 05:43:44;;;;;;;0.23;0.23;;;;;;;;;;4980036;28;20572;-62
2022/07/28 05:46:31;;;;;;;0.40;0.40;;;;;;;;;;4987489;28;20208;-63
2022/07/28 05:49:18;;;;;;;0.63;0.50;;;;;;;;;;4980784;28;20206;-63
2022/07/28 05:52:05;;;;;;;0.20;0.20;;;;;;;;;;4986410;28;20249;-63
2022/07/28 05:54:52;;;;;;;0.40;0.40;;;;;;;;;;4986731;28;20234;-62
2022/07/28 05:57:40;;;;;;;0.30;0.30;;;;;;;;;;4982485;28;20252;-62
2022/07/28 06:00:31;;;;;;;0.30;0.30;;;;;;;;;;4976972;28;20209;-62
2022/07/28 06:03:18;;;;;;;0.27;0.27;;;;;;;;;;4985397;28;20235;-62
2022/07/28 06:06:05;;;;;;;0.32;0.32;;;;;;;;;;4981846;28;20223;-63
2022/07/28 06:08:52;;;;;;;0.30;0.30;;;;;;;;;;4981219;28;20296;-63
2022/07/28 06:11:39;;;;;;;0.15;0.15;;;;;;;;;;4985112;28;20220;-62
2022/07/28 06:14:26;;;;;;;0.52;0.40;;;;;;;;;;4979309;28;20216;-63
2022/07/28 06:17:14;;;;;;;0.47;0.40;;;;;;;;;;4986033;28;20207;-62
2022/07/28 06:20:01;;;;;;;0.40;0.40;;;;;;;;;;4988188;28;20558;-63
2022/07/28 06:25:31;;;;;;;0.32;0.30;;;;;;;;;;5150912;27;20534;-63
2022/07/28 06:28:18;;;;;;;0.47;0.30;;;;;;;;;;5136972;27;20212;-63
2022/07/28 06:31:05;;;;;;;0.30;0.30;;;;;;;;;;5132406;27;20208;-63
2022/07/28 06:33:52;;;;;;;0.40;0.40;;;;;;;;;;5133370;27;20196;-63
2022/07/28 06:36:39;;;;;;;0.65;0.52;;;;;;;;;;5132235;27;20212;-63
2022/07/28 06:39:26;;;;;;;0.28;0.28;;;;;;;;;;5132648;27;20570;-63
2022/07/28 06:42:14;;;;;;;0.55;0.40;;;;;;;;;;5131678;27;20239;-63
2022/07/28 06:45:01;;;;;;;0.30;0.30;;;;;;;;;;5133699;27;20247;-63
2022/07/28 06:47:48;;;;;;;0.63;0.47;;;;;;;;;;5138505;27;20205;-61
2022/07/28 06:50:38;;;;;;;1.35;0.35;;;;;;;;;;5139546;27;20583;-62
2022/07/28 06:53:25;;;;;;;0.50;0.30;;;;;;;;;;5129722;27;20198;-62
2022/07/28 06:56:12;;;;;;;0.45;0.45;;;;;;;;;;5134081;27;20212;-60
2022/07/28 06:59:00;;;;;;;0.30;0.30;;;;;;;;;;5132877;27;20296;-59
2022/07/28 07:01:47;;;;;;;0.32;0.32;;;;;;;;;;5156916;27;20218;-60
2022/07/28 07:04:34;;;;;;;0.40;0.40;;;;;;;;;;5151841;27;20224;-60
2022/07/28 07:07:22;;;;;;;0.47;0.47;;;;;;;;;;5139543;27;20209;-60
2022/07/28 07:10:09;;;;;;;0.52;0.30;;;;;;;;;;5133293;27;20302;-61
2022/07/28 07:12:56;;;;;;;0.32;0.32;;;;;;;;;;5134717;27;20203;-60
2022/07/28 07:15:44;;;;;;;0.38;0.20;;;;;;;;;;5137043;27;20246;-60
2022/07/28 07:18:31;;;;;;;0.65;0.20;;;;;;;;;;5142668;27;20278;-60
2022/07/28 07:21:18;;;;;;;0.73;0.40;;;;;;;;;;5133645;27;20220;-61
2022/07/28 07:24:06;;;;;;;0.98;0.60;;;;;;;;;;5126814;27;20229;-60
2022/07/28 07:26:53;;;;;;;0.32;0.30;;;;;;;;;;5112830;28;20440;-60
2022/07/28 07:29:40;;;;;;;0.32;0.32;;;;;;;;;;5111238;28;20681;-62
2022/07/28 07:32:29;;;;;;;2.10;0.30;;;;;;;;;;5110276;28;20332;-60
2022/07/28 07:35:16;;;;;;;0.57;0.52;;;;;;;;;;5112761;28;20236;-60
2022/07/28 07:38:03;;;;;;;0.43;0.40;;;;;;;;;;5098804;28;20216;-60
2022/07/28 07:40:50;;;;;;;0.22;0.20;;;;;;;;;;5095901;28;20194;-61
2022/07/28 07:43:37;;;;;;;0.40;0.40;;;;;;;;;;5103235;28;20585;-63
2022/07/28 07:46:24;;;;;;;0.30;0.30;;;;;;;;;;5103970;28;20210;-63
2022/07/28 07:49:15;;;;;;;0.30;0.30;;;;;;;;;;5098910;28;20621;-63
2022/07/28 07:52:02;;;;;;;0.45;0.38;;;;;;;;;;5097148;27;20202;-63
2022/07/28 07:54:49;;;;;;;0.50;0.40;;;;;;;;;;5098666;28;20293;-63
2022/07/28 07:57:36;;;;;;;0.50;0.50;;;;;;;;;;5102570;28;20667;-63
2022/07/28 08:00:23;;;;;;;0.55;0.43;;;;;;;;;;5099370;28;20197;-63
2022/07/28 08:03:10;;;;;;;0.77;0.38;;;;;;;;;;5101669;28;20243;-63
2022/07/28 08:05:59;;;;;;;0.40;0.40;;;;;;;;;;5097802;28;20222;-62
2022/07/28 08:08:45;;;;;;;0.30;0.30;;;;;;;;;;5098490;28;20297;-63
2022/07/28 08:11:32;;;;;;;0.43;0.43;;;;;;;;;;5100310;28;20213;-62
2022/07/28 08:14:19;;;;;;;0.47;0.47;;;;;;;;;;5094021;28;20209;-63
2022/07/28 08:17:06;;;;;;;0.50;0.40;;;;;;;;;;5094750;28;20265;-63
2022/07/28 08:19:53;;;;;;;0.50;0.50;;;;;;;;;;5100953;28;20205;-62
2022/07/28 08:22:48;;;;;;;0.40;0.40;;;;;;;;;;5099402;28;20201;-62
2022/07/28 08:25:36;;;;;;;0.40;0.40;;;;;;;;;;5121195;27;20217;-62
2022/07/28 08:28:23;;;;;;;0.38;0.38;;;;;;;;;;5118947;27;20665;-63
2022/07/28 08:31:10;;;;;;;0.73;0.45;;;;;;;;;;5117486;27;20566;-62
2022/07/28 08:33:57;;;;;;;0.50;0.50;;;;;;;;;;5118030;27;20209;-63
2022/07/28 08:36:44;;;;;;;0.40;0.40;;;;;;;;;;5121224;27;20209;-61
2022/07/28 08:39:34;;;;;;;0.38;0.30;;;;;;;;;;5120756;27;20669;-61
2022/07/28 08:42:27;;;;;;;1.08;0.50;;;;;;;;;;5122183;27;20206;-60
2022/07/28 08:45:16;;;;;;;0.47;0.47;;;;;;;;;;5118230;27;20236;-62
2022/07/28 08:48:05;;;;;;;0.57;0.47;;;;;;;;;;5115611;27;20720;-60
2022/07/28 08:50:52;;;;;;;0.30;0.30;;;;;;;;;;5121798;27;20205;-60
2022/07/28 08:53:40;;;;;;;0.40;0.40;;;;;;;;;;5117746;27;20688;-60
2022/07/28 08:56:29;;;;;;;0.30;0.30;;;;;;;;;;5119599;27;20209;-60
2022/07/28 08:59:16;;;;;;;0.45;0.43;;;;;;;;;;5118081;27;20208;-60
2022/07/28 09:02:03;;;;;;;1.30;0.60;;;;;;;;;;5120469;27;20202;-59
2022/07/28 09:04:50;;;;;;;0.52;0.38;;;;;;;;;;5115924;27;20218;-60
2022/07/28 09:07:40;;;;;;;0.73;0.45;;;;;;;;;;5115830;27;20213;-59
2022/07/28 09:10:27;;;;;;;0.43;0.43;;;;;;;;;;5116200;27;20266;-59
2022/07/28 09:13:16;;;;;;;0.55;0.50;;;;;;;;;;5122714;27;20340;-62
2022/07/28 09:16:03;;;;;;;0.57;0.57;;;;;;;;;;5117528;27;20210;-61
2022/07/28 09:18:50;;;;;;;0.38;0.35;;;;;;;;;;5124946;27;20581;-62
2022/07/28 09:21:38;;;;;;;0.30;0.30;;;;;;;;;;5118533;27;20573;-62
2022/07/28 09:24:36;;;;;;;0.68;0.50;;;;;;;;;;5105423;27;20242;-62
2022/07/28 09:27:23;;;;;;;0.55;0.47;;;;;;;;;;5098200;28;20578;-62
2022/07/28 09:30:12;;;;;;;0.40;0.40;;;;;;;;;;5104158;28;20568;-62
2022/07/28 09:33:17;;;;;;;0.50;0.40;;;;;;;;;;5097778;28;20211;-62
2022/07/28 09:36:12;;;;;;;0.20;0.20;;;;;;;;;;5091937;28;20202;-62
2022/07/28 09:38:59;;;;;;;0.50;0.50;;;;;;;;;;5098075;28;20213;-62
2022/07/28 09:41:48;;;;;;;0.38;0.38;;;;;;;;;;5098199;28;20686;-62
2022/07/28 09:44:35;;;;;;;0.40;0.40;;;;;;;;;;5097906;28;20609;-63
2022/07/28 09:47:25;;;;;;;0.65;0.63;;;;;;;;;;5094290;28;20217;-62
2022/07/28 09:50:19;;;;;;;0.32;0.32;;;;;;;;;;5101164;28;20213;-61
2022/07/28 09:53:25;;;;;;;0.45;0.45;;;;;;;;;;5095932;28;20233;-62
2022/07/28 09:56:13;;;;;;;0.30;0.30;;;;;;;;;;5095675;28;20198;-64
2022/07/28 09:59:02;;;;;;;0.68;0.68;;;;;;;;;;5100472;28;20285;-61
2022/07/28 10:01:53;;;;;;;0.47;0.47;;;;;;;;;;5096088;28;20616;-62
2022/07/28 10:04:42;;;;;;;0.40;0.40;;;;;;;;;;5095733;28;20226;-62
2022/07/28 10:07:30;;;;;;;0.30;0.30;;;;;;;;;;5094591;28;20206;-61
2022/07/28 10:10:20;;;;;;;0.47;0.47;;;;;;;;;;5094652;28;20210;-61
2022/07/28 10:13:07;;;;;;;0.80;0.47;;;;;;;;;;5100372;28;20280;-61
2022/07/28 10:16:10;;;;;;;0.52;0.40;;;;;;;;;;5096175;28;20274;-61
2022/07/28 10:18:59;;;;;;;0.20;0.20;;;;;;;;;;5096015;28;20207;-61
2022/07/28 10:21:50;;;;;;;0.40;0.40;;;;;;;;;;5101067;28;20217;-61
2022/07/28 10:24:39;;;;;;;0.30;0.30;;;;;;;;;;5097691;28;20285;-61
2022/07/28 10:27:26;;;;;;;0.47;0.47;;;;;;;;;;5096396;28;20221;-61
2022/07/28 10:30:14;;;;;;;0.30;0.30;;;;;;;;;;5097981;28;20264;-61
2022/07/28 10:33:05;;;;;;;0.77;0.43;;;;;;;;;;5097722;28;20675;-61
2022/07/28 10:35:52;;;;;;;0.88;0.63;;;;;;;;;;5095689;28;20634;-60
2022/07/28 10:38:41;;;;;;;0.45;0.45;;;;;;;;;;5099360;28;20213;-61
2022/07/28 10:41:38;;;;;;;0.38;0.38;;;;;;;;;;5098433;28;20267;-61
2022/07/28 10:44:26;;;;;;;0.55;0.20;;;;;;;;;;5100548;28;20209;-61
2022/07/28 10:47:13;;;;;;;0.30;0.30;;;;;;;;;;5094838;28;20290;-61
2022/07/28 10:50:01;;;;;;;0.38;0.38;;;;;;;;;;5091236;28;20205;-61
2022/07/28 10:52:49;;;;;;;0.30;0.30;;;;;;;;;;5091355;28;20199;-61
2022/07/28 10:55:46;;;;;;;0.20;0.20;;;;;;;;;;5092408;28;20202;-61
2022/07/28 10:58:43;;;;;;;0.43;0.43;;;;;;;;;;5093707;28;20649;-61
2022/07/28 11:01:35;;;;;;;0.30;0.30;;;;;;;;;;5097848;28;20202;-61
2022/07/28 11:04:54;;;;;;;0.75;0.30;;;;;;;;;;5094318;28;20320;-61
2022/07/28 11:07:41;;;;;;;0.30;0.30;;;;;;;;;;5064190;28;20213;-61
2022/07/28 11:10:29;;;;;;;0.60;0.47;;;;;;;;;;5096475;28;20238;-60
2022/07/28 11:13:29;;;;;;;0.63;0.45;;;;;;;;;;5099729;28;20202;-61
2022/07/28 11:16:20;;;;;;;0.22;0.22;;;;;;;;;;5101214;28;20580;-61
2022/07/28 11:19:10;;;;;;;0.30;0.30;;;;;;;;;;5099495;28;20657;-61
2022/07/28 11:22:23;;;;;;;0.30;0.30;;;;;;;;;;5101761;28;20191;-61
2022/07/28 11:25:14;;;;;;;0.32;0.32;;;;;;;;;;5103712;28;20245;-61
2022/07/28 11:28:03;;;;;;;0.32;0.32;;;;;;;;;;5100526;28;20564;-60
2022/07/28 11:30:56;;;;;;;0.30;0.30;;;;;;;;;;5096961;28;20202;-60
2022/07/28 11:33:56;;;;;;;0.30;0.30;;;;;;;;;;5097079;28;20279;-61
2022/07/28 11:37:00;;;;;;;0.30;0.30;;;;;;;;;;5101081;28;20669;-61
2022/07/28 11:39:47;;;;;;;0.28;0.28;;;;;;;;;;5101396;28;20668;-61
2022/07/28 11:42:34;;;;;;;0.40;0.40;;;;;;;;;;5099261;28;20252;-61
2022/07/28 11:45:23;;;;;;;0.60;0.60;;;;;;;;;;5096833;28;20230;-61
2022/07/28 11:48:14;;;;;;;0.30;0.30;;;;;;;;;;5099629;28;20213;-61
2022/07/28 11:51:11;;;;;;;0.70;0.40;;;;;;;;;;5094574;28;20190;-61
2022/07/28 11:53:58;;;;;;;0.45;0.45;;;;;;;;;;5097391;28;20202;-61
2022/07/28 11:56:45;;;;;;;0.45;0.40;;;;;;;;;;5098039;28;20199;-61
2022/07/28 11:59:43;;;;;;;0.28;0.28;;;;;;;;;;5098411;28;20214;-61
2022/07/28 12:02:31;;;;;;;0.30;0.30;;;;;;;;;;5093918;28;20578;-61
2022/07/28 12:05:21;;;;;;;0.50;0.50;;;;;;;;;;5100621;28;20605;-60
2022/07/28 12:08:08;;;;;;;0.88;0.60;;;;;;;;;;5095720;28;20722;-61
2022/07/28 12:10:55;;;;;;;0.45;0.40;;;;;;;;;;5094177;28;20206;-61
2022/07/28 12:13:43;;;;;;;0.98;0.70;;;;;;;;;;5105105;28;20197;-60
2022/07/28 12:16:31;;;;;;;0.60;0.60;;;;;;;;;;5097876;28;20210;-61
2022/07/28 12:19:20;;;;;;;0.60;0.60;;;;;;;;;;5097482;28;20210;-62
2022/07/28 12:22:12;;;;;;;0.82;0.50;;;;;;;;;;5099400;28;20277;-61
2022/07/28 12:24:59;;;;;;;1.02;0.70;;;;;;;;;;5096333;28;20240;-61
2022/07/28 12:27:45;;;;;;;0.50;0.50;;;;;;;;;;5097931;28;20206;-63
2022/07/28 12:30:32;;;;;;;1.10;0.60;;;;;;;;;;5099719;28;20206;-61
2022/07/28 12:33:22;;;;;;;0.63;0.63;;;;;;;;;;5101551;28;20341;-61
2022/07/28 12:36:09;;;;;;;1.15;0.95;;;;;;;;;;5098913;28;20203;-61
2022/07/28 12:38:59;;;;;;;0.95;0.77;;;;;;;;;;5099763;28;20206;-61
2022/07/28 12:41:45;;;;;;;0.50;0.40;;;;;;;;;;5096572;28;20272;-62
2022/07/28 12:44:35;;;;;;;1.17;0.88;;;;;;;;;;5102447;28;20288;-62
2022/07/28 12:47:26;;;;;;;0.65;0.55;;;;;;;;;;5100289;28;20194;-61
2022/07/28 12:50:15;;;;;;;0.60;0.60;;;;;;;;;;5102417;28;20225;-62
2022/07/28 12:53:03;;;;;;;0.85;0.50;;;;;;;;;;5096458;28;20383;-61
2022/07/28 12:56:01;;;;;;;0.60;0.60;;;;;;;;;;5090292;28;20202;-61
2022/07/28 12:58:50;;;;;;;0.50;0.50;;;;;;;;;;5095380;28;20232;-61
2022/07/28 13:01:47;;;;;;;0.47;0.47;;;;;;;;;;5097064;28;20213;-61
2022/07/28 13:04:42;;;;;;;0.65;0.60;;;;;;;;;;5094632;28;20207;-61
2022/07/28 13:07:31;;;;;;;0.82;0.57;;;;;;;;;;5101046;28;20206;-62
2022/07/28 13:10:18;;;;;;;0.77;0.57;;;;;;;;;;5098375;28;20576;-62
2022/07/28 13:13:07;;;;;;;1.60;0.80;;;;;;;;;;5094741;28;20656;-61
2022/07/28 13:16:14;;;;;;;0.57;0.57;;;;;;;;;;5097987;28;20195;-62
2022/07/28 13:19:03;;;;;;;0.50;0.50;;;;;;;;;;5099446;28;20215;-61
2022/07/28 13:21:56;;;;;;;0.50;0.50;;;;;;;;;;5100443;28;20225;-61
2022/07/28 13:24:43;;;;;;;0.65;0.65;;;;;;;;;;5095200;28;20230;-61
2022/07/28 13:27:32;;;;;;;1.10;0.60;;;;;;;;;;5095427;28;20208;-61
2022/07/28 13:30:20;;;;;;;0.82;0.70;;;;;;;;;;5098853;28;20206;-62
2022/07/28 13:33:07;;;;;;;0.82;0.63;;;;;;;;;;5100258;28;20215;-61
2022/07/28 13:35:54;;;;;;;0.57;0.40;;;;;;;;;;5097218;28;20206;-62
2022/07/28 13:38:41;;;;;;;1.70;0.60;;;;;;;;;;5101788;28;20210;-62
2022/07/28 13:41:28;;;;;;;1.20;0.80;;;;;;;;;;5097140;28;20209;-62
2022/07/28 13:44:15;;;;;;;0.88;0.70;;;;;;;;;;5097060;28;20206;-61
2022/07/28 13:47:05;;;;;;;0.88;0.70;;;;;;;;;;5096035;28;20621;-61
2022/07/28 13:49:52;;;;;;;1.15;0.70;;;;;;;;;;5099553;28;20209;-62
2022/07/28 13:52:39;;;;;;;1.13;0.50;;;;;;;;;;5101567;28;20210;-61
2022/07/28 13:55:26;;;;;;;1.08;0.77;;;;;;;;;;5100899;28;20239;-61
2022/07/28 13:58:14;;;;;;;0.75;0.75;;;;;;;;;;5101549;28;20204;-61
2022/07/28 14:01:01;;;;;;;0.82;0.80;;;;;;;;;;5095723;28;20236;-61
2022/07/28 14:03:50;;;;;;;0.50;0.50;;;;;;;;;;5099234;28;20218;-61
2022/07/28 14:06:37;;;;;;;0.70;0.70;;;;;;;;;;5091834;28;20223;-61
2022/07/28 14:09:24;;;;;;;0.98;0.68;;;;;;;;;;5098665;28;20204;-61
2022/07/28 14:12:11;;;;;;;0.52;0.52;;;;;;;;;;5101604;28;20220;-61
2022/07/28 14:14:58;;;;;;;0.73;0.70;;;;;;;;;;5099052;28;20246;-62
2022/07/28 14:17:44;;;;;;;0.82;0.70;;;;;;;;;;5094429;28;20745;-61
2022/07/28 14:20:33;;;;;;;0.95;0.68;;;;;;;;;;5098356;28;20699;-61
2022/07/28 14:23:20;;;;;;;0.93;0.93;;;;;;;;;;5093551;28;20647;-61
2022/07/28 14:26:07;;;;;;;0.50;0.50;;;;;;;;;;5096781;28;20237;-61
2022/07/28 14:28:54;;;;;;;1.10;0.65;;;;;;;;;;5101319;28;20209;-62
2022/07/28 14:31:41;;;;;;;0.70;0.70;;;;;;;;;;5096262;28;20322;-62
2022/07/28 14:34:28;;;;;;;0.60;0.60;;;;;;;;;;5095791;28;20204;-61
2022/07/28 14:37:17;;;;;;;0.70;0.70;;;;;;;;;;5098316;28;20199;-61
2022/07/28 14:40:05;;;;;;;1.05;0.70;;;;;;;;;;5094624;28;20579;-62
2022/07/28 14:42:51;;;;;;;0.70;0.70;;;;;;;;;;5095565;28;20615;-61
2022/07/28 14:45:38;;;;;;;0.85;0.70;;;;;;;;;;5096284;28;20284;-61
2022/07/28 14:48:25;;;;;;;0.60;0.60;;;;;;;;;;5101359;28;20218;-61
2022/07/28 14:51:13;;;;;;;0.70;0.60;;;;;;;;;;5102900;28;20256;-61
2022/07/28 14:54:01;;;;;;;0.70;0.60;;;;;;;;;;5098856;28;20206;-61
2022/07/28 14:56:48;;;;;;;0.80;0.80;;;;;;;;;;5098241;28;20212;-61
2022/07/28 14:59:35;;;;;;;0.77;0.70;;;;;;;;;;5101678;28;20661;-61
2022/07/28 15:02:22;;;;;;;1.15;0.70;;;;;;;;;;5097013;28;20628;-61
2022/07/28 15:05:10;;;;;;;1.02;0.85;;;;;;;;;;5097796;28;20220;-61
2022/07/28 15:07:57;;;;;;;0.80;0.60;;;;;;;;;;5101288;28;20229;-61
2022/07/28 15:10:45;;;;;;;0.98;0.88;;;;;;;;;;5102171;28;20203;-62
2022/07/28 15:13:32;;;;;;;0.70;0.63;;;;;;;;;;5098747;28;20217;-63
2022/07/28 15:16:19;;;;;;;0.80;0.80;;;;;;;;;;5104937;28;20666;-61
2022/07/28 15:19:06;;;;;;;1.48;0.80;;;;;;;;;;5099224;28;20673;-61
2022/07/28 15:21:53;;;;;;;0.65;0.65;;;;;;;;;;5098364;28;20204;-61
2022/07/28 15:24:41;;;;;;;1.13;0.80;;;;;;;;;;5102019;28;20346;-61
2022/07/28 15:27:29;;;;;;;0.90;0.80;;;;;;;;;;5098711;28;20618;-61
2022/07/28 15:30:16;;;;;;;0.77;0.75;;;;;;;;;;5101640;28;20216;-61
2022/07/28 15:33:03;;;;;;;1.08;0.80;;;;;;;;;;5098287;28;20205;-61
2022/07/28 15:35:50;;;;;;;0.82;0.80;;;;;;;;;;5102891;28;20205;-62
2022/07/28 15:38:37;;;;;;;0.85;0.80;;;;;;;;;;5104140;28;20573;-62
2022/07/28 15:41:24;;;;;;;0.95;0.88;;;;;;;;;;5098145;28;20213;-61
2022/07/28 15:44:14;;;;;;;0.73;0.73;;;;;;;;;;5104303;28;20285;-61
2022/07/28 15:47:01;;;;;;;1.02;0.93;;;;;;;;;;5102145;28;20214;-61
2022/07/28 15:49:48;;;;;;;1.25;0.75;;;;;;;;;;5104455;28;20616;-62
2022/07/28 15:52:35;;;;;;;0.80;0.80;;;;;;;;;;5103168;28;20965;-61
2022/07/28 15:55:22;;;;;;;0.90;0.80;;;;;;;;;;5100490;28;20212;-62
2022/07/28 15:58:09;;;;;;;1.05;0.77;;;;;;;;;;5099713;28;20212;-62
2022/07/28 16:00:57;;;;;;;0.80;0.80;;;;;;;;;;5101329;28;20667;-61
2022/07/28 16:03:44;;;;;;;0.80;0.80;;;;;;;;;;5105780;28;20215;-62
2022/07/28 16:09:32;;;;;;;0.80;0.80;;;;;;;;;;5099256;28;20263;-61
2022/07/28 16:12:21;;;;;;;0.90;0.70;;;;;;;;;;5096040;28;20211;-61
2022/07/28 16:15:09;;;;;;;0.60;0.60;;;;;;;;;;5101989;28;20338;-62
2022/07/28 16:17:57;;;;;;;1.05;0.95;;;;;;;;;;5097311;28;20213;-61
2022/07/28 16:20:44;;;;;;;0.80;0.80;;;;;;;;;;5099079;28;20216;-61
2022/07/28 16:23:31;;;;;;;1.15;0.95;;;;;;;;;;5097887;28;20305;-61
2022/07/28 16:26:18;;;;;;;0.90;0.80;;;;;;;;;;5097919;28;20226;-62
2022/07/28 16:29:05;;;;;;;0.82;0.82;;;;;;;;;;5095978;28;20217;-61
2022/07/28 16:31:52;;;;;;;0.70;0.70;;;;;;;;;;5102621;28;20210;-61
2022/07/28 16:34:40;;;;;;;1.42;0.70;;;;;;;;;;5099153;28;20203;-61
2022/07/28 16:37:27;;;;;;;0.80;0.80;;;;;;;;;;5098999;28;20209;-62
2022/07/28 16:40:14;;;;;;;0.80;0.80;;;;;;;;;;5103775;28;20579;-61
2022/07/28 16:43:03;;;;;;;0.60;0.60;;;;;;;;;;5095615;28;20213;-62
2022/07/28 16:45:49;;;;;;;1.42;1.00;;;;;;;;;;5098133;28;20206;-61
2022/07/28 16:48:36;;;;;;;1.60;0.80;;;;;;;;;;5101550;28;20206;-62
2022/07/28 16:51:25;;;;;;;1.00;0.90;;;;;;;;;;5096255;28;20571;-62
2022/07/28 16:54:12;;;;;;;1.35;0.98;;;;;;;;;;5098047;28;20246;-61
2022/07/28 16:56:59;;;;;;;0.93;0.90;;;;;;;;;;5103377;28;20196;-61
2022/07/28 16:59:46;;;;;;;1.20;1.00;;;;;;;;;;5102551;27;20323;-62